Time;durP1;ratioP1;P1;durP2;ratioP2;P2;SDS_P1;SDS_P2;PMS_P1;PMS_P2;Temp;Humidity;BMP_temperature;BMP_pressure;BME280_temperature;BME280_humidity;BME280_pressure;Samples;Min_cycle;Max_cycle;Signal;HPM_P1;HPM_P2
2022/12/25 00:01:09;;;;;;;29.88;11.00;;;6.40;99.90;;;;;;5040287;28;20033;-70
2022/12/25 00:03:35;;;;;;;22.58;10.63;;;6.30;99.90;;;;;;5043736;28;20135;-70
2022/12/25 00:06:01;;;;;;;24.88;11.88;;;6.30;99.90;;;;;;5044671;28;20123;-70
2022/12/25 00:08:26;;;;;;;27.13;10.80;;;6.30;99.90;;;;;;5032936;28;20396;-70
2022/12/25 00:10:59;;;;;;;28.48;12.15;;;6.30;99.90;;;;;;5051148;28;20548;-70
2022/12/25 00:13:25;;;;;;;27.85;11.25;;;6.30;99.90;;;;;;5022618;28;20033;-70
2022/12/25 00:15:51;;;;;;;25.02;10.65;;;6.30;99.90;;;;;;5034623;28;20103;-70
2022/12/25 00:18:16;;;;;;;31.83;10.85;;;6.20;99.90;;;;;;5052272;28;20409;-70
2022/12/25 00:20:42;;;;;;;25.85;10.48;;;6.20;99.90;;;;;;5034878;28;20040;-70
2022/12/25 00:23:07;;;;;;;30.48;11.20;;;6.30;99.90;;;;;;5050623;28;20049;-70
2022/12/25 00:25:33;;;;;;;27.48;10.95;;;6.30;99.90;;;;;;5051552;28;20041;-70
2022/12/25 00:27:58;;;;;;;28.85;10.70;;;6.30;99.90;;;;;;5033523;28;20036;-70
2022/12/25 00:30:24;;;;;;;32.58;10.60;;;6.30;99.90;;;;;;5034313;28;20029;-70
2022/12/25 00:32:50;;;;;;;27.70;11.18;;;6.40;99.90;;;;;;5050978;28;20400;-70
2022/12/25 00:35:15;;;;;;;30.65;11.95;;;6.40;99.90;;;;;;5051679;28;20107;-70
2022/12/25 00:37:41;;;;;;;27.35;11.57;;;6.40;99.90;;;;;;5034419;28;20045;-70
2022/12/25 00:40:07;;;;;;;30.58;10.93;;;6.40;99.90;;;;;;5035168;28;20047;-70
2022/12/25 00:42:32;;;;;;;29.15;11.55;;;6.30;99.90;;;;;;5050924;28;20071;-70
2022/12/25 00:45:00;;;;;;;33.72;11.02;;;6.30;99.90;;;;;;5035290;28;20041;-70
2022/12/25 00:47:25;;;;;;;27.13;10.90;;;6.30;99.90;;;;;;5050945;28;20072;-70
2022/12/25 00:49:51;;;;;;;29.80;11.65;;;6.30;99.90;;;;;;5049656;28;20083;-70
2022/12/25 00:52:16;;;;;;;30.90;11.48;;;6.30;99.90;;;;;;5051617;28;20033;-70
2022/12/25 00:54:42;;;;;;;32.03;11.35;;;6.30;99.90;;;;;;5034141;28;20040;-70
2022/12/25 00:57:08;;;;;;;27.73;11.18;;;6.30;99.90;;;;;;5068277;28;20040;-70
2022/12/25 00:59:34;;;;;;;25.23;11.27;;;6.30;99.90;;;;;;5051171;28;20064;-70
2022/12/25 01:04:43;;;;;;;26.13;11.43;;;6.30;99.90;;;;;;5050484;28;20052;-70
2022/12/25 01:07:09;;;;;;;27.35;10.52;;;6.20;99.90;;;;;;5050740;28;20405;-70
2022/12/25 01:12:18;;;;;;;28.40;11.35;;;6.30;99.90;;;;;;5051542;28;20080;-70
2022/12/25 01:14:44;;;;;;;26.40;11.02;;;6.20;99.90;;;;;;5048528;28;20472;-70
2022/12/25 01:17:09;;;;;;;24.35;10.15;;;6.20;99.90;;;;;;5032979;28;20037;-70
2022/12/25 01:19:35;;;;;;;28.73;10.98;;;6.30;99.90;;;;;;5034803;28;20029;-70
2022/12/25 01:22:01;;;;;;;31.60;11.90;;;6.30;99.90;;;;;;5034826;28;20474;-70
2022/12/25 01:24:26;;;;;;;29.75;11.32;;;6.40;99.90;;;;;;5050469;28;20037;-70
2022/12/25 01:26:53;;;;;;;29.63;11.48;;;6.40;99.90;;;;;;5034741;28;20472;-70
2022/12/25 01:29:18;;;;;;;32.38;12.13;;;6.50;99.90;;;;;;5050632;28;20508;-70
2022/12/25 01:31:44;;;;;;;27.98;10.88;;;6.60;99.90;;;;;;5050417;28;20068;-70
2022/12/25 01:34:09;;;;;;;28.38;11.02;;;6.60;99.90;;;;;;5033890;28;20041;-70
2022/12/25 01:36:35;;;;;;;35.05;12.27;;;6.80;99.90;;;;;;5054575;28;20554;-70
2022/12/25 01:39:00;;;;;;;27.52;11.73;;;6.70;99.90;;;;;;5037924;28;20044;-70
2022/12/25 01:41:26;;;;;;;36.83;12.00;;;6.80;99.90;;;;;;5037220;28;20090;-70
2022/12/25 01:44:26;;;;;;;30.15;11.65;;;6.80;99.90;;;;;;5043294;28;20124;-70
2022/12/25 01:46:52;;;;;;;28.95;12.45;;;6.90;99.90;;;;;;5034569;28;20498;-70
2022/12/25 01:49:23;;;;;;;31.65;11.52;;;6.90;99.90;;;;;;5062679;28;20044;-70
2022/12/25 01:51:59;;;;;;;30.58;12.02;;;6.90;99.90;;;;;;5051376;28;20527;-70
2022/12/25 01:54:34;;;;;;;31.05;12.20;;;6.90;99.90;;;;;;5038685;28;20045;-70
2022/12/25 01:57:04;;;;;;;34.17;12.05;;;7.00;99.90;;;;;;5034710;28;20099;-70
2022/12/25 01:59:30;;;;;;;28.48;11.68;;;6.90;99.90;;;;;;5034856;28;20505;-70
2022/12/25 02:01:56;;;;;;;30.50;12.32;;;6.90;99.90;;;;;;5051026;28;20057;-70
2022/12/25 02:04:37;;;;;;;29.23;11.55;;;7.00;99.90;;;;;;5034426;28;20053;-70
2022/12/25 02:07:07;;;;;;;28.67;12.45;;;7.00;99.90;;;;;;5034340;28;20041;-71
2022/12/25 02:09:33;;;;;;;29.52;11.52;;;7.00;99.90;;;;;;5035275;28;20048;-71
2022/12/25 02:11:59;;;;;;;28.80;11.55;;;7.10;99.90;;;;;;5051383;28;20042;-70
2022/12/25 02:14:29;;;;;;;29.73;11.48;;;7.10;99.90;;;;;;5033668;28;20041;-70
2022/12/25 02:17:12;;;;;;;33.20;12.35;;;7.10;99.90;;;;;;5053515;28;20033;-70
2022/12/25 02:19:59;;;;;;;27.33;11.57;;;7.10;99.90;;;;;;5053174;28;20045;-70
2022/12/25 02:22:55;;;;;;;34.42;12.43;;;7.20;99.90;;;;;;5053254;28;20073;-71
2022/12/25 02:25:46;;;;;;;27.60;12.02;;;7.20;99.90;;;;;;5037587;28;20132;-70
2022/12/25 02:28:40;;;;;;;26.43;11.67;;;7.20;99.90;;;;;;5036702;28;20037;-71
2022/12/25 02:31:27;;;;;;;30.90;12.23;;;7.20;99.90;;;;;;5054055;28;20041;-70
2022/12/25 02:34:12;;;;;;;31.25;12.18;;;7.20;99.90;;;;;;5035446;28;20043;-70
2022/12/25 02:36:57;;;;;;;30.33;11.23;;;7.30;99.90;;;;;;5054007;28;20041;-70
2022/12/25 02:39:58;;;;;;;30.60;12.50;;;7.20;99.90;;;;;;5036599;28;20048;-70
2022/12/25 03:08:15;;;;;;;27.23;11.93;;;7.30;99.90;;;;;;5050021;28;20125;-70
2022/12/25 03:13:33;;;;;;;31.17;11.25;;;7.30;99.90;;;;;;5058636;28;20049;-71
2022/12/25 03:18:43;;;;;;;25.10;10.90;;;7.30;99.90;;;;;;5053103;28;20053;-71
2022/12/25 03:26:56;;;;;;;26.48;10.82;;;7.30;99.90;;;;;;5052743;28;20509;-70
2022/12/25 03:32:21;;;;;;;25.48;10.70;;;7.30;99.90;;;;;;5050066;28;20036;-70
2022/12/25 03:35:22;;;;;;;27.17;11.00;;;7.50;99.90;;;;;;5052704;28;20044;-70
2022/12/25 04:37:26;;;;;;;25.95;11.13;;;7.80;99.90;;;;;;5068607;28;20045;-69
2022/12/25 04:39:52;;;;;;;26.65;11.07;;;7.80;99.90;;;;;;5052077;28;20397;-69
2022/12/25 04:42:17;;;;;;;30.52;11.65;;;7.80;99.90;;;;;;5052624;28;20033;-69
2022/12/25 04:44:43;;;;;;;25.05;11.25;;;7.80;99.90;;;;;;5051658;28;20489;-69
2022/12/25 04:47:08;;;;;;;31.42;11.70;;;7.90;99.90;;;;;;5035016;28;20044;-69
2022/12/25 04:49:34;;;;;;;31.60;11.65;;;7.80;99.90;;;;;;5051952;28;20037;-69
2022/12/25 04:51:59;;;;;;;35.00;12.45;;;7.90;99.90;;;;;;5035051;28;20044;-69
2022/12/25 04:54:25;;;;;;;31.63;11.77;;;7.80;99.90;;;;;;5050742;28;20386;-69
2022/12/25 04:56:51;;;;;;;31.58;12.75;;;7.80;99.90;;;;;;5034412;28;20044;-69
2022/12/25 04:59:16;;;;;;;29.98;12.45;;;7.80;99.90;;;;;;5051614;28;20120;-69
2022/12/25 05:01:42;;;;;;;37.83;13.00;;;7.90;99.90;;;;;;5054738;28;20037;-69
2022/12/25 05:04:07;;;;;;;33.20;13.35;;;7.90;99.90;;;;;;5054910;28;20063;-69
2022/12/25 05:06:33;;;;;;;32.45;13.38;;;7.90;99.90;;;;;;5055273;28;20120;-69
2022/12/25 05:08:58;;;;;;;34.60;13.38;;;8.00;99.90;;;;;;5050624;28;20038;-69
2022/12/25 05:11:24;;;;;;;37.72;14.25;;;8.00;99.90;;;;;;5038223;28;20087;-69
2022/12/25 05:13:50;;;;;;;29.80;12.48;;;8.00;99.90;;;;;;5039141;28;20033;-69
2022/12/25 05:16:18;;;;;;;29.25;12.32;;;8.10;99.90;;;;;;5039217;28;20041;-69
2022/12/25 05:18:44;;;;;;;33.28;13.15;;;8.20;99.90;;;;;;5037984;28;20401;-69
2022/12/25 05:21:10;;;;;;;30.40;13.68;;;8.20;99.90;;;;;;5053458;28;20032;-69
2022/12/25 05:23:36;;;;;;;27.08;13.02;;;8.30;99.90;;;;;;5053423;28;20059;-69
2022/12/25 05:26:05;;;;;;;35.25;13.30;;;8.30;99.90;;;;;;5037724;28;20045;-69
2022/12/25 05:28:33;;;;;;;33.60;13.10;;;8.30;99.90;;;;;;5053456;28;20025;-69
2022/12/25 05:30:59;;;;;;;30.40;11.98;;;8.40;99.90;;;;;;5052758;28;20052;-69
2022/12/25 05:33:24;;;;;;;25.73;11.77;;;8.50;99.90;;;;;;5046015;28;20033;-69
2022/12/25 05:35:50;;;;;;;31.60;14.15;;;8.40;99.90;;;;;;5037556;28;20078;-69
2022/12/25 05:38:15;;;;;;;30.48;13.05;;;8.40;99.90;;;;;;5043399;28;20047;-69
2022/12/25 05:40:41;;;;;;;30.33;13.18;;;8.40;99.90;;;;;;5018587;28;20044;-69
2022/12/25 05:43:07;;;;;;;36.88;14.00;;;8.40;99.90;;;;;;5036244;28;20412;-69
2022/12/25 05:45:32;;;;;;;34.83;14.38;;;8.40;99.90;;;;;;5054813;28;20044;-69
2022/12/25 05:47:58;;;;;;;33.20;14.07;;;8.40;99.90;;;;;;5054622;28;20432;-69
2022/12/25 05:50:24;;;;;;;34.38;15.45;;;8.40;99.90;;;;;;5055525;28;20374;-69
2022/12/25 05:52:49;;;;;;;28.48;12.90;;;8.40;99.90;;;;;;5037259;28;20576;-69
2022/12/25 05:55:15;;;;;;;32.55;14.35;;;8.40;99.90;;;;;;5038231;28;20044;-69
2022/12/25 05:57:40;;;;;;;35.90;14.18;;;8.40;99.90;;;;;;5037975;28;20087;-69
2022/12/25 06:00:07;;;;;;;38.13;15.15;;;8.40;99.90;;;;;;5038048;28;20083;-69
2022/12/25 06:02:34;;;;;;;31.35;14.50;;;8.40;99.90;;;;;;5037628;28;20147;-69
2022/12/25 06:05:00;;;;;;;30.35;15.25;;;8.40;99.90;;;;;;5037723;28;20087;-69
2022/12/25 06:07:25;;;;;;;42.25;15.02;;;8.40;99.90;;;;;;5038399;28;20073;-69
2022/12/25 06:09:51;;;;;;;40.22;15.20;;;8.40;99.90;;;;;;5054383;28;20423;-69
2022/12/25 06:12:17;;;;;;;38.85;15.35;;;8.40;99.90;;;;;;5037975;28;20033;-69
2022/12/25 06:14:42;;;;;;;36.38;15.30;;;8.30;99.90;;;;;;5054284;28;20041;-69
2022/12/25 06:17:08;;;;;;;30.13;14.13;;;8.40;99.90;;;;;;5054136;28;20045;-69
2022/12/25 06:19:33;;;;;;;32.83;14.18;;;8.40;99.90;;;;;;5037464;28;20131;-69
2022/12/25 06:21:59;;;;;;;34.50;14.95;;;8.40;99.90;;;;;;5053404;28;20033;-69
2022/12/25 06:24:24;;;;;;;42.92;15.75;;;8.40;99.90;;;;;;5053902;28;20130;-69
2022/12/25 06:26:50;;;;;;;34.47;15.65;;;8.40;99.90;;;;;;5054071;28;20406;-69
2022/12/25 06:29:16;;;;;;;33.53;14.98;;;8.30;99.90;;;;;;5037602;28;20371;-69
2022/12/25 06:31:42;;;;;;;34.25;16.58;;;8.30;99.90;;;;;;5037267;28;20044;-69
2022/12/25 06:34:07;;;;;;;38.40;15.48;;;8.30;99.90;;;;;;5037283;28;20043;-69
2022/12/25 06:36:36;;;;;;;34.40;16.48;;;8.30;99.90;;;;;;5036437;28;20029;-69
2022/12/25 06:39:01;;;;;;;38.90;16.00;;;8.30;99.90;;;;;;5052184;28;20037;-69
2022/12/25 06:41:28;;;;;;;37.38;15.95;;;8.30;99.90;;;;;;5052264;28;20126;-69
2022/12/25 06:43:57;;;;;;;38.47;15.23;;;8.30;99.90;;;;;;5052604;28;20497;-69
2022/12/25 06:46:25;;;;;;;33.17;15.70;;;8.40;99.90;;;;;;5036126;28;20044;-69
2022/12/25 06:48:52;;;;;;;33.17;16.30;;;8.40;99.90;;;;;;5046473;28;20486;-69
2022/12/25 06:51:20;;;;;;;39.58;15.65;;;8.40;99.90;;;;;;5017482;28;20393;-69
2022/12/25 06:53:47;;;;;;;38.08;17.40;;;8.40;99.90;;;;;;5046283;28;20108;-70
2022/12/25 06:56:16;;;;;;;36.63;16.10;;;8.40;99.90;;;;;;5050167;28;20778;-69
2022/12/25 06:58:47;;;;;;;40.10;16.05;;;8.40;99.90;;;;;;5049708;28;20045;-69
2022/12/25 07:01:28;;;;;;;32.22;14.15;;;8.40;99.90;;;;;;5051230;28;20053;-69
2022/12/25 07:03:57;;;;;;;30.80;13.88;;;8.60;99.90;;;;;;5052250;28;20061;-69
2022/12/25 07:06:23;;;;;;;32.20;15.93;;;8.70;99.90;;;;;;5040883;28;20034;-69
2022/12/25 07:08:48;;;;;;;29.15;14.48;;;8.70;99.90;;;;;;5044405;28;20049;-70
2022/12/25 07:11:14;;;;;;;34.78;14.30;;;8.70;99.90;;;;;;5034972;28;20050;-69
2022/12/25 07:13:40;;;;;;;30.25;13.80;;;8.60;99.90;;;;;;5041732;28;20025;-69
2022/12/25 07:16:06;;;;;;;34.50;14.40;;;8.60;99.90;;;;;;5039441;28;20053;-70
2022/12/25 07:18:33;;;;;;;29.02;14.60;;;8.70;99.90;;;;;;5051329;28;20045;-70
2022/12/25 07:21:05;;;;;;;34.05;15.13;;;8.60;99.90;;;;;;5035136;28;20051;-69
2022/12/25 07:23:31;;;;;;;30.63;15.73;;;8.50;99.90;;;;;;5050964;28;20041;-69
2022/12/25 07:25:58;;;;;;;31.15;15.02;;;8.50;99.90;;;;;;5032639;28;20053;-69
2022/12/25 07:28:25;;;;;;;34.50;15.82;;;8.50;99.90;;;;;;5033939;28;20033;-69
2022/12/25 07:30:50;;;;;;;32.55;16.02;;;8.50;99.90;;;;;;5057279;28;20048;-70
2022/12/25 07:33:17;;;;;;;42.28;16.15;;;8.50;99.90;;;;;;5053570;28;20041;-69
2022/12/25 07:35:43;;;;;;;28.38;15.20;;;8.50;99.90;;;;;;5033682;28;20044;-70
2022/12/25 07:38:08;;;;;;;30.45;15.23;;;8.50;99.90;;;;;;5033626;28;20041;-70
2022/12/25 07:40:34;;;;;;;33.25;14.75;;;8.50;99.90;;;;;;5036188;28;20036;-70
2022/12/25 07:43:00;;;;;;;32.30;14.63;;;8.50;99.90;;;;;;5048660;28;20037;-69
2022/12/25 07:45:25;;;;;;;24.50;13.13;;;8.50;99.90;;;;;;5039182;28;20037;-69
2022/12/25 07:47:51;;;;;;;25.98;13.32;;;8.60;99.90;;;;;;5054471;28;20480;-69
2022/12/25 07:50:16;;;;;;;29.63;13.60;;;8.60;99.90;;;;;;5072002;28;20119;-69
2022/12/25 07:52:42;;;;;;;26.20;12.43;;;8.60;99.90;;;;;;5039724;28;20524;-69
2022/12/25 07:55:09;;;;;;;23.35;12.18;;;8.60;99.90;;;;;;5052497;28;20120;-70
2022/12/25 07:57:35;;;;;;;28.90;12.05;;;8.60;99.90;;;;;;5038024;28;20045;-69
2022/12/25 08:00:03;;;;;;;24.40;12.02;;;8.60;99.90;;;;;;5032126;28;20124;-69
2022/12/25 08:02:28;;;;;;;20.35;12.45;;;8.60;99.90;;;;;;5039800;28;20064;-69
2022/12/25 08:04:54;;;;;;;22.02;11.48;;;8.70;99.90;;;;;;5051503;28;20048;-69
2022/12/25 08:07:20;;;;;;;19.08;10.88;;;8.70;99.90;;;;;;5050899;28;20087;-69
2022/12/25 08:09:45;;;;;;;20.02;10.52;;;8.70;99.90;;;;;;5051745;28;20371;-69
2022/12/25 08:12:11;;;;;;;22.88;9.45;;;8.70;99.90;;;;;;5032320;28;20037;-69
2022/12/25 08:14:37;;;;;;;20.75;9.73;;;8.80;99.90;;;;;;5034393;28;20120;-69
2022/12/25 08:17:02;;;;;;;18.70;10.20;;;8.90;99.90;;;;;;5049183;28;20401;-69
2022/12/25 08:19:28;;;;;;;20.50;10.48;;;8.80;99.90;;;;;;5039790;28;20123;-69
2022/12/25 08:21:54;;;;;;;22.52;10.18;;;8.80;99.90;;;;;;5050129;28;20572;-69
2022/12/25 08:24:20;;;;;;;19.60;9.68;;;8.80;99.90;;;;;;5051301;28;20189;-69
2022/12/25 08:26:45;;;;;;;20.17;10.60;;;8.80;99.90;;;;;;5049360;28;20128;-69
2022/12/25 08:29:11;;;;;;;20.35;10.25;;;8.80;99.90;;;;;;5049168;28;20037;-69
2022/12/25 08:31:36;;;;;;;19.17;9.88;;;8.80;99.90;;;;;;5027100;28;20029;-69
2022/12/25 08:34:03;;;;;;;20.63;9.48;;;8.80;99.90;;;;;;5031881;28;20040;-69
2022/12/25 08:36:29;;;;;;;16.25;9.18;;;8.80;99.90;;;;;;5031388;28;20063;-70
2022/12/25 08:38:54;;;;;;;20.42;9.43;;;8.80;99.90;;;;;;5067023;28;20051;-70
2022/12/25 08:41:20;;;;;;;21.27;10.15;;;8.80;99.90;;;;;;5018652;28;20037;-71
2022/12/25 08:43:46;;;;;;;17.83;8.93;;;8.80;99.90;;;;;;5031401;28;20129;-67
2022/12/25 08:46:12;;;;;;;14.90;8.90;;;8.80;99.90;;;;;;5054939;28;20041;-68
2022/12/25 08:48:40;;;;;;;19.60;9.15;;;8.80;99.90;;;;;;5053891;28;20119;-68
2022/12/25 08:51:10;;;;;;;18.27;9.52;;;8.70;99.90;;;;;;5027404;28;20087;-68
2022/12/25 08:53:36;;;;;;;19.35;9.18;;;8.70;99.90;;;;;;5038775;28;20381;-68
2022/12/25 08:56:05;;;;;;;20.50;9.02;;;8.70;99.90;;;;;;5055377;28;20103;-69
2022/12/25 08:58:32;;;;;;;19.52;9.48;;;8.60;99.90;;;;;;5036973;28;20065;-69
2022/12/25 09:00:58;;;;;;;17.05;8.35;;;8.70;99.90;;;;;;5044617;28;20037;-68
2022/12/25 09:03:24;;;;;;;18.48;9.32;;;8.70;99.90;;;;;;5053930;28;20056;-71
2022/12/25 09:05:51;;;;;;;18.00;8.90;;;8.70;99.90;;;;;;5038696;28;20444;-69
2022/12/25 09:08:17;;;;;;;18.52;8.63;;;8.70;99.90;;;;;;5034874;28;20041;-69
2022/12/25 09:10:43;;;;;;;14.77;8.18;;;8.80;99.90;;;;;;5035296;28;20367;-69
2022/12/25 09:13:08;;;;;;;21.15;8.52;;;8.80;99.90;;;;;;5045444;28;20036;-69
2022/12/25 09:15:36;;;;;;;15.82;7.65;;;8.80;99.90;;;;;;5037087;28;20453;-69
2022/12/25 09:18:01;;;;;;;16.52;7.13;;;8.80;99.90;;;;;;5054580;28;20132;-69
2022/12/25 09:20:27;;;;;;;15.70;8.07;;;8.80;99.90;;;;;;5053520;28;20496;-69
2022/12/25 09:22:52;;;;;;;19.35;8.05;;;8.80;99.90;;;;;;5070704;28;20041;-69
2022/12/25 09:25:18;;;;;;;20.63;8.52;;;8.80;99.90;;;;;;5055186;28;20086;-69
2022/12/25 09:27:44;;;;;;;14.80;7.40;;;8.80;99.90;;;;;;5053751;28;20032;-69
2022/12/25 09:30:10;;;;;;;19.88;8.40;;;8.80;99.90;;;;;;5046941;28;20075;-69
2022/12/25 09:32:35;;;;;;;15.30;7.20;;;8.80;99.90;;;;;;5027251;28;20131;-69
2022/12/25 09:35:01;;;;;;;12.77;6.85;;;8.80;99.90;;;;;;5053856;28;20505;-69
2022/12/25 09:37:27;;;;;;;15.43;7.45;;;8.80;99.90;;;;;;5052846;28;20455;-69
2022/12/25 09:39:53;;;;;;;14.93;6.97;;;8.80;99.90;;;;;;5038575;28;20041;-69
2022/12/25 09:42:26;;;;;;;15.63;6.95;;;8.80;99.90;;;;;;5054955;28;20091;-69
2022/12/25 09:45:02;;;;;;;15.48;7.10;;;8.80;99.90;;;;;;5053956;28;20389;-69
2022/12/25 09:47:31;;;;;;;14.82;6.63;;;8.80;99.90;;;;;;5035558;28;20151;-69
2022/12/25 09:50:21;;;;;;;17.38;7.32;;;8.80;99.90;;;;;;5037287;28;20045;-69
2022/12/25 09:53:03;;;;;;;14.93;6.90;;;8.80;99.90;;;;;;5038116;28;20489;-70
2022/12/25 09:55:32;;;;;;;13.35;6.45;;;8.80;99.90;;;;;;5038156;28;20049;-70
2022/12/25 09:58:01;;;;;;;14.50;6.53;;;8.80;99.90;;;;;;5036388;28;20041;-70
2022/12/25 10:00:39;;;;;;;17.30;6.82;;;8.80;99.90;;;;;;5036765;28;20456;-70
2022/12/25 10:03:29;;;;;;;13.73;6.75;;;8.90;99.90;;;;;;5037195;28;20441;-70
2022/12/25 10:06:29;;;;;;;14.27;6.70;;;8.80;99.90;;;;;;5052508;28;20144;-70
2022/12/25 10:09:12;;;;;;;17.73;7.53;;;8.90;99.90;;;;;;5028289;28;20091;-70
2022/12/25 10:11:46;;;;;;;14.30;6.32;;;8.80;99.90;;;;;;5054348;28;20041;-70
2022/12/25 10:14:30;;;;;;;15.30;7.07;;;8.80;99.90;;;;;;5037005;28;20497;-70
2022/12/25 10:17:14;;;;;;;14.73;6.82;;;8.90;99.90;;;;;;5037948;28;20052;-70
2022/12/25 10:19:44;;;;;;;11.27;6.32;;;8.90;99.90;;;;;;5053498;28;20072;-70
2022/12/25 10:22:30;;;;;;;15.20;6.75;;;8.90;99.90;;;;;;5034238;28;20493;-70
2022/12/25 10:24:58;;;;;;;12.48;6.78;;;8.90;99.90;;;;;;5032958;28;20044;-70
2022/12/25 10:27:37;;;;;;;15.85;7.13;;;8.90;99.90;;;;;;5050300;28;20120;-70
2022/12/25 10:30:15;;;;;;;15.52;7.15;;;8.90;99.90;;;;;;5050035;28;20509;-70
2022/12/25 10:32:43;;;;;;;14.05;6.82;;;8.90;99.90;;;;;;5052025;28;20075;-70
2022/12/25 10:35:14;;;;;;;13.48;6.63;;;8.90;99.90;;;;;;5034003;28;20046;-70
2022/12/25 10:37:41;;;;;;;11.95;6.10;;;8.90;99.90;;;;;;5035250;28;20045;-70
2022/12/25 10:40:36;;;;;;;18.48;7.25;;;8.90;99.90;;;;;;5051434;28;20036;-70
2022/12/25 10:43:17;;;;;;;13.73;6.68;;;8.90;99.90;;;;;;5016164;28;20033;-70
2022/12/25 10:45:47;;;;;;;14.98;6.75;;;9.00;99.90;;;;;;5033877;28;20140;-70
2022/12/25 10:48:28;;;;;;;13.52;6.63;;;8.90;99.90;;;;;;5036321;28;20116;-70
2022/12/25 10:50:54;;;;;;;18.30;6.97;;;8.90;99.90;;;;;;5053599;28;20067;-70
2022/12/25 10:53:27;;;;;;;10.38;6.03;;;9.00;99.90;;;;;;5052717;28;20033;-70
2022/12/25 10:55:58;;;;;;;12.77;6.32;;;9.00;99.90;;;;;;5053586;28;20051;-69
2022/12/25 10:58:25;;;;;;;12.05;6.18;;;9.00;99.90;;;;;;5048808;28;20132;-70
2022/12/25 11:00:58;;;;;;;11.13;6.22;;;9.10;99.90;;;;;;5052649;28;20048;-70
2022/12/25 11:03:27;;;;;;;13.52;5.93;;;9.00;99.90;;;;;;5041862;28;20523;-70
2022/12/25 11:05:53;;;;;;;13.85;5.90;;;9.10;99.90;;;;;;5050963;28;20037;-70
2022/12/25 11:08:24;;;;;;;11.95;5.80;;;9.10;99.90;;;;;;5052279;28;20102;-70
2022/12/25 11:11:04;;;;;;;11.88;6.03;;;9.10;99.90;;;;;;5044519;28;20047;-70
2022/12/25 11:13:34;;;;;;;13.13;5.28;;;9.10;99.90;;;;;;5038469;28;20037;-70
2022/12/25 11:16:31;;;;;;;12.45;5.90;;;9.10;99.90;;;;;;5050003;28;20506;-70
2022/12/25 11:18:58;;;;;;;11.80;5.03;;;9.10;99.90;;;;;;5041356;28;20060;-70
2022/12/25 11:21:36;;;;;;;13.05;5.75;;;9.10;99.90;;;;;;5051518;28;20033;-69
2022/12/25 11:24:16;;;;;;;14.15;6.40;;;9.10;99.90;;;;;;5053857;28;20083;-68
2022/12/25 11:26:54;;;;;;;12.57;5.70;;;9.10;99.90;;;;;;5052264;28;20511;-67
2022/12/25 11:29:35;;;;;;;11.52;5.40;;;9.20;99.90;;;;;;5051277;28;20029;-68
2022/12/25 11:32:03;;;;;;;13.65;5.38;;;9.20;99.90;;;;;;5033394;28;20041;-68
2022/12/25 11:34:41;;;;;;;11.02;5.28;;;9.20;99.90;;;;;;5042007;28;20087;-68
2022/12/25 11:37:13;;;;;;;13.38;5.80;;;9.30;99.90;;;;;;5051860;28;20045;-67
2022/12/25 11:39:40;;;;;;;12.30;5.00;;;9.30;99.90;;;;;;5050304;28;20033;-68
2022/12/25 11:42:23;;;;;;;11.02;4.93;;;9.40;99.90;;;;;;5051906;28;20076;-68
2022/12/25 11:44:54;;;;;;;11.05;4.80;;;9.40;99.90;;;;;;5051102;28;20041;-69
2022/12/25 11:47:31;;;;;;;11.87;5.37;;;9.40;99.90;;;;;;5051994;28;20041;-69
2022/12/25 11:50:08;;;;;;;12.25;5.72;;;9.40;99.90;;;;;;5048465;28;20029;-69
2022/12/25 11:52:37;;;;;;;11.65;5.22;;;9.40;99.90;;;;;;5034050;28;20103;-69
2022/12/25 11:55:29;;;;;;;11.02;5.80;;;9.40;99.90;;;;;;5034960;28;20509;-69
2022/12/25 11:58:00;;;;;;;12.00;5.15;;;9.40;99.90;;;;;;5051512;28;20448;-68
2022/12/25 12:00:28;;;;;;;11.95;5.05;;;9.40;99.90;;;;;;5045385;28;20415;-69
2022/12/25 12:02:58;;;;;;;10.15;5.28;;;9.50;99.90;;;;;;5055816;28;20460;-68
2022/12/25 12:05:44;;;;;;;11.23;5.68;;;9.50;99.90;;;;;;5040998;28;20401;-68
2022/12/25 12:08:10;;;;;;;12.23;5.65;;;9.50;99.90;;;;;;5037380;28;20558;-68
2022/12/25 12:10:59;;;;;;;11.35;5.13;;;9.50;99.90;;;;;;5043466;28;20040;-69
2022/12/25 12:13:39;;;;;;;13.85;5.60;;;9.50;99.90;;;;;;5046835;28;20424;-68
2022/12/25 12:16:07;;;;;;;13.45;5.55;;;9.50;99.90;;;;;;5034910;28;20120;-68
2022/12/25 12:18:33;;;;;;;13.00;5.50;;;9.40;99.90;;;;;;5044110;28;20033;-68
2022/12/25 12:21:05;;;;;;;13.10;5.78;;;9.40;99.90;;;;;;5043460;28;20037;-68
2022/12/25 12:23:34;;;;;;;15.23;6.00;;;9.50;99.90;;;;;;5038990;28;20040;-68
2022/12/25 12:26:01;;;;;;;10.55;5.43;;;9.50;99.90;;;;;;5051532;28;20044;-69
2022/12/25 12:28:32;;;;;;;11.80;5.63;;;9.40;99.90;;;;;;5047070;28;20083;-69
2022/12/25 12:31:05;;;;;;;12.15;5.90;;;9.50;99.90;;;;;;5034705;28;20040;-68
2022/12/25 12:33:36;;;;;;;13.82;6.15;;;9.50;99.90;;;;;;5047124;28;20025;-69
2022/12/25 12:36:03;;;;;;;12.40;6.32;;;9.50;99.90;;;;;;5044371;28;20426;-68
2022/12/25 12:38:30;;;;;;;13.45;5.80;;;9.40;99.90;;;;;;5025682;28;20064;-69
2022/12/25 12:41:01;;;;;;;10.07;6.40;;;9.50;99.90;;;;;;5056048;28;20045;-69
2022/12/25 12:43:29;;;;;;;12.30;6.60;;;9.40;99.90;;;;;;5041285;28;20036;-69
2022/12/25 12:46:00;;;;;;;13.85;6.70;;;9.40;99.90;;;;;;5043329;28;20406;-68
2022/12/25 12:48:28;;;;;;;15.73;8.10;;;9.40;99.90;;;;;;5026017;28;20056;-68
2022/12/25 12:51:08;;;;;;;12.60;7.97;;;9.40;99.90;;;;;;5014968;28;20516;-69
2022/12/25 12:53:37;;;;;;;17.40;8.48;;;9.40;99.90;;;;;;5043178;28;20384;-68
2022/12/25 12:56:18;;;;;;;16.67;9.27;;;9.40;99.90;;;;;;5034262;28;20092;-70
2022/12/25 12:58:49;;;;;;;17.65;10.35;;;9.40;99.90;;;;;;5038659;28;20040;-69
2022/12/25 13:01:39;;;;;;;17.40;11.23;;;9.40;99.90;;;;;;5036539;28;20081;-68
2022/12/25 13:04:19;;;;;;;19.80;10.77;;;9.40;99.90;;;;;;5031073;28;20053;-68
2022/12/25 13:07:31;;;;;;;21.70;11.50;;;9.40;99.90;;;;;;5039758;28;20596;-69
2022/12/25 13:09:56;;;;;;;17.35;11.48;;;9.40;99.90;;;;;;5032651;28;20029;-68
2022/12/25 13:12:23;;;;;;;19.30;11.98;;;9.40;99.90;;;;;;5033968;28;20569;-69
2022/12/25 13:14:49;;;;;;;23.55;15.35;;;9.40;99.90;;;;;;5038900;28;20029;-68
2022/12/25 13:17:24;;;;;;;21.95;12.93;;;9.40;99.90;;;;;;5034251;28;20174;-69
2022/12/25 13:19:54;;;;;;;21.35;14.00;;;9.40;99.90;;;;;;5034714;28;20468;-69
2022/12/25 13:22:23;;;;;;;18.30;12.05;;;9.40;99.90;;;;;;5047441;28;20033;-69
2022/12/25 13:24:57;;;;;;;23.45;13.63;;;9.40;99.90;;;;;;5029314;28;20048;-68
2022/12/25 13:27:26;;;;;;;22.58;14.02;;;9.50;99.90;;;;;;5050895;28;20087;-68
2022/12/25 13:29:51;;;;;;;22.10;14.10;;;9.60;99.90;;;;;;5044129;28;20136;-68
2022/12/25 13:32:25;;;;;;;20.90;12.95;;;9.70;99.90;;;;;;5035376;28;20128;-69
2022/12/25 13:34:51;;;;;;;18.90;12.65;;;9.70;99.90;;;;;;5038787;28;20041;-68
2022/12/25 13:37:20;;;;;;;19.90;12.52;;;9.70;99.90;;;;;;5047725;28;20061;-68
2022/12/25 13:40:00;;;;;;;19.80;12.30;;;9.80;99.90;;;;;;5037077;28;20044;-68
2022/12/25 13:42:30;;;;;;;17.63;11.13;;;9.70;99.90;;;;;;5036356;28;20126;-68
2022/12/25 13:45:01;;;;;;;18.90;11.80;;;9.70;99.90;;;;;;5026131;28;20135;-68
2022/12/25 13:47:33;;;;;;;24.02;11.40;;;9.60;99.90;;;;;;5039324;28;20045;-68
2022/12/25 13:50:12;;;;;;;16.75;10.20;;;9.60;99.90;;;;;;5034270;28;20559;-68
2022/12/25 13:52:38;;;;;;;18.52;10.63;;;9.50;99.90;;;;;;5035962;28;20120;-68
2022/12/25 13:55:10;;;;;;;18.23;10.95;;;9.50;99.90;;;;;;5062003;28;20116;-68
2022/12/25 13:57:50;;;;;;;16.35;9.77;;;9.60;99.90;;;;;;5032586;28;20041;-68
2022/12/25 14:00:26;;;;;;;14.10;9.52;;;9.70;99.90;;;;;;5034055;28;20052;-68
2022/12/25 14:02:53;;;;;;;19.55;11.30;;;9.70;99.90;;;;;;5051542;28;20067;-68
2022/12/25 14:05:34;;;;;;;19.27;10.75;;;9.70;99.90;;;;;;5023598;28;20048;-68
2022/12/25 14:08:03;;;;;;;21.75;11.15;;;9.70;99.90;;;;;;5021927;28;20034;-68
2022/12/25 14:10:33;;;;;;;20.48;10.00;;;9.80;99.90;;;;;;5052621;28;20049;-68
2022/12/25 14:13:03;;;;;;;21.00;12.43;;;9.80;99.90;;;;;;5048053;28;20439;-68
2022/12/25 14:15:31;;;;;;;17.30;11.23;;;9.80;99.90;;;;;;5034028;28;20452;-68
2022/12/25 14:17:57;;;;;;;17.45;10.88;;;9.70;99.90;;;;;;5053387;28;20033;-68
2022/12/25 14:20:29;;;;;;;17.75;11.98;;;9.70;99.90;;;;;;5037410;28;20128;-68
2022/12/25 14:22:57;;;;;;;13.30;7.63;;;9.70;99.90;;;;;;5035732;28;20047;-68
2022/12/25 14:25:49;;;;;;;15.07;9.80;;;9.80;99.90;;;;;;5035873;28;20493;-68
2022/12/25 14:28:19;;;;;;;19.02;10.93;;;9.70;99.90;;;;;;5052252;28;20033;-68
2022/12/25 14:30:45;;;;;;;23.45;15.40;;;9.70;99.90;;;;;;5050625;28;20036;-68
2022/12/25 14:33:18;;;;;;;18.98;12.82;;;9.60;99.90;;;;;;5069009;28;20041;-68
2022/12/25 14:35:45;;;;;;;21.50;13.85;;;9.60;99.90;;;;;;5050787;28;20045;-68
2022/12/25 14:38:28;;;;;;;21.27;13.35;;;9.60;99.90;;;;;;5035752;28;20037;-68
2022/12/25 14:41:04;;;;;;;;;;;9.60;99.90;;;;;;5032794;28;20041;-68